sensor_id;sensor_type;location;lat;lon;timestamp;P1;durP1;ratioP1;P2;durP2;ratioP2
36629;SDS011;36256;42.154;23.002;2022-08-19T13:04:52;6.03;;;3.40;;
36629;SDS011;36256;42.154;23.002;2022-08-19T13:07:19;11.00;;;3.60;;
36629;SDS011;36256;42.154;23.002;2022-08-19T13:09:45;7.20;;;3.65;;
36629;SDS011;36256;42.154;23.002;2022-08-19T13:12:12;13.40;;;4.20;;
36629;SDS011;36256;42.154;23.002;2022-08-19T13:14:39;9.32;;;3.28;;
36629;SDS011;36256;42.154;23.002;2022-08-19T13:17:07;15.10;;;4.00;;
36629;SDS011;36256;42.154;23.002;2022-08-19T13:19:35;9.13;;;4.00;;
36629;SDS011;36256;42.154;23.002;2022-08-19T13:22:02;6.97;;;3.30;;
36629;SDS011;36256;42.154;23.002;2022-08-19T13:24:37;7.85;;;3.67;;
36629;SDS011;36256;42.154;23.002;2022-08-19T13:27:09;6.72;;;3.10;;
36629;SDS011;36256;42.154;23.002;2022-08-19T13:29:35;7.18;;;3.58;;
36629;SDS011;36256;42.154;23.002;2022-08-19T13:32:20;9.18;;;3.58;;
36629;SDS011;36256;42.154;23.002;2022-08-19T13:35:07;13.90;;;4.07;;
36629;SDS011;36256;42.154;23.002;2022-08-19T13:37:37;8.00;;;3.90;;
36629;SDS011;36256;42.154;23.002;2022-08-19T13:40:11;11.82;;;4.13;;
36629;SDS011;36256;42.154;23.002;2022-08-19T13:42:42;18.13;;;4.30;;
36629;SDS011;36256;42.154;23.002;2022-08-19T13:45:10;10.45;;;4.05;;
36629;SDS011;36256;42.154;23.002;2022-08-19T13:47:38;8.55;;;4.07;;
36629;SDS011;36256;42.154;23.002;2022-08-19T13:50:15;7.40;;;3.47;;
36629;SDS011;36256;42.154;23.002;2022-08-19T13:52:43;10.35;;;3.70;;
36629;SDS011;36256;42.154;23.002;2022-08-19T13:55:11;19.35;;;4.68;;
36629;SDS011;36256;42.154;23.002;2022-08-19T13:57:38;18.85;;;4.93;;
36629;SDS011;36256;42.154;23.002;2022-08-19T14:00:07;16.73;;;4.53;;
36629;SDS011;36256;42.154;23.002;2022-08-19T14:02:37;14.40;;;4.00;;
36629;SDS011;36256;42.154;23.002;2022-08-19T14:05:08;14.55;;;4.53;;
36629;SDS011;36256;42.154;23.002;2022-08-19T14:07:37;13.48;;;4.13;;
36629;SDS011;36256;42.154;23.002;2022-08-19T14:12:32;24.15;;;3.90;;
36629;SDS011;36256;42.154;23.002;2022-08-19T14:14:59;10.73;;;3.65;;
36629;SDS011;36256;42.154;23.002;2022-08-19T14:17:27;6.93;;;3.95;;
36629;SDS011;36256;42.154;23.002;2022-08-19T14:19:58;12.55;;;4.07;;
36629;SDS011;36256;42.154;23.002;2022-08-19T14:22:36;32.72;;;5.60;;
36629;SDS011;36256;42.154;23.002;2022-08-19T14:25:05;14.15;;;4.70;;
36629;SDS011;36256;42.154;23.002;2022-08-19T14:27:34;32.53;;;6.15;;
36629;SDS011;36256;42.154;23.002;2022-08-19T14:30:05;18.92;;;5.13;;
36629;SDS011;36256;42.154;23.002;2022-08-19T14:32:33;11.35;;;3.80;;
36629;SDS011;36256;42.154;23.002;2022-08-19T14:35:01;11.07;;;3.40;;
36629;SDS011;36256;42.154;23.002;2022-08-19T14:37:28;8.80;;;3.83;;
36629;SDS011;36256;42.154;23.002;2022-08-19T14:42:21;11.32;;;3.47;;
36629;SDS011;36256;42.154;23.002;2022-08-19T14:44:48;8.68;;;3.38;;
36629;SDS011;36256;42.154;23.002;2022-08-19T14:47:15;8.32;;;3.25;;
36629;SDS011;36256;42.154;23.002;2022-08-19T14:49:42;8.88;;;3.38;;
36629;SDS011;36256;42.154;23.002;2022-08-19T14:52:13;9.88;;;3.50;;
36629;SDS011;36256;42.154;23.002;2022-08-19T14:57:06;39.45;;;5.00;;
36629;SDS011;36256;42.154;23.002;2022-08-19T15:02:01;7.97;;;3.50;;
36629;SDS011;36256;42.154;23.002;2022-08-19T15:04:47;10.05;;;4.35;;
36629;SDS011;36256;42.154;23.002;2022-08-19T15:07:23;12.48;;;3.78;;
36629;SDS011;36256;42.154;23.002;2022-08-19T15:09:54;23.30;;;4.45;;
36629;SDS011;36256;42.154;23.002;2022-08-19T15:12:21;13.30;;;4.05;;
36629;SDS011;36256;42.154;23.002;2022-08-19T15:14:48;15.15;;;4.38;;
36629;SDS011;36256;42.154;23.002;2022-08-19T15:17:22;12.13;;;4.30;;
36629;SDS011;36256;42.154;23.002;2022-08-19T15:20:09;14.80;;;4.25;;
36629;SDS011;36256;42.154;23.002;2022-08-19T15:22:38;49.33;;;10.85;;
36629;SDS011;36256;42.154;23.002;2022-08-19T15:25:06;20.60;;;4.50;;
36629;SDS011;36256;42.154;23.002;2022-08-19T15:27:37;23.25;;;6.18;;
36629;SDS011;36256;42.154;23.002;2022-08-19T15:30:05;22.58;;;5.55;;
36629;SDS011;36256;42.154;23.002;2022-08-19T15:32:34;19.52;;;4.80;;
36629;SDS011;36256;42.154;23.002;2022-08-19T15:35:03;20.40;;;4.28;;
36629;SDS011;36256;42.154;23.002;2022-08-19T15:37:31;144.52;;;11.93;;
36629;SDS011;36256;42.154;23.002;2022-08-19T15:40:03;51.13;;;17.25;;
36629;SDS011;36256;42.154;23.002;2022-08-19T15:42:31;21.42;;;5.03;;
36629;SDS011;36256;42.154;23.002;2022-08-19T15:44:58;52.90;;;20.65;;
36629;SDS011;36256;42.154;23.002;2022-08-19T15:47:27;20.52;;;6.80;;
36629;SDS011;36256;42.154;23.002;2022-08-19T15:50:02;27.20;;;9.18;;
36629;SDS011;36256;42.154;23.002;2022-08-19T15:52:36;18.70;;;7.30;;
36629;SDS011;36256;42.154;23.002;2022-08-19T15:55:25;10.35;;;5.30;;
36629;SDS011;36256;42.154;23.002;2022-08-19T15:58:02;38.00;;;14.95;;
36629;SDS011;36256;42.154;23.002;2022-08-19T16:00:58;19.70;;;4.83;;
36629;SDS011;36256;42.154;23.002;2022-08-19T16:03:47;8.15;;;3.42;;
36629;SDS011;36256;42.154;23.002;2022-08-19T16:06:40;15.13;;;3.85;;
36629;SDS011;36256;42.154;23.002;2022-08-19T16:09:09;12.10;;;3.38;;
36629;SDS011;36256;42.154;23.002;2022-08-19T16:14:05;22.05;;;7.45;;
36629;SDS011;36256;42.154;23.002;2022-08-19T16:16:35;15.70;;;5.18;;
36629;SDS011;36256;42.154;23.002;2022-08-19T16:19:04;20.90;;;8.23;;
36629;SDS011;36256;42.154;23.002;2022-08-19T16:21:37;9.25;;;3.90;;
36629;SDS011;36256;42.154;23.002;2022-08-19T16:24:07;18.90;;;5.57;;
36629;SDS011;36256;42.154;23.002;2022-08-19T16:26:39;46.92;;;18.27;;
36629;SDS011;36256;42.154;23.002;2022-08-19T16:29:07;33.70;;;12.82;;
36629;SDS011;36256;42.154;23.002;2022-08-19T16:31:38;56.95;;;25.30;;
36629;SDS011;36256;42.154;23.002;2022-08-19T16:34:06;54.20;;;31.48;;
36629;SDS011;36256;42.154;23.002;2022-08-19T16:39:00;47.70;;;30.55;;
36629;SDS011;36256;42.154;23.002;2022-08-19T16:41:27;83.18;;;40.15;;
36629;SDS011;36256;42.154;23.002;2022-08-19T16:43:54;25.80;;;15.60;;
36629;SDS011;36256;42.154;23.002;2022-08-19T16:48:52;49.00;;;21.38;;
36629;SDS011;36256;42.154;23.002;2022-08-19T16:51:19;40.45;;;13.48;;
36629;SDS011;36256;42.154;23.002;2022-08-19T16:53:48;9.88;;;4.28;;
36629;SDS011;36256;42.154;23.002;2022-08-19T16:56:18;18.30;;;6.50;;
36629;SDS011;36256;42.154;23.002;2022-08-19T16:58:45;14.32;;;6.32;;
36629;SDS011;36256;42.154;23.002;2022-08-19T17:01:12;14.50;;;5.97;;
36629;SDS011;36256;42.154;23.002;2022-08-19T17:08:45;32.95;;;11.80;;
36629;SDS011;36256;42.154;23.002;2022-08-19T17:11:14;36.75;;;12.00;;
36629;SDS011;36256;42.154;23.002;2022-08-19T17:13:44;10.02;;;5.15;;
36629;SDS011;36256;42.154;23.002;2022-08-19T17:16:14;15.38;;;4.50;;
36629;SDS011;36256;42.154;23.002;2022-08-19T17:18:41;12.52;;;4.45;;
36629;SDS011;36256;42.154;23.002;2022-08-19T17:21:08;17.90;;;4.60;;
36629;SDS011;36256;42.154;23.002;2022-08-19T17:23:34;10.90;;;4.55;;
36629;SDS011;36256;42.154;23.002;2022-08-19T17:26:08;12.02;;;4.50;;
36629;SDS011;36256;42.154;23.002;2022-08-19T17:28:44;10.38;;;4.53;;
36629;SDS011;36256;42.154;23.002;2022-08-19T17:31:16;9.70;;;4.82;;
36629;SDS011;36256;42.154;23.002;2022-08-19T17:33:44;9.90;;;3.97;;
36629;SDS011;36256;42.154;23.002;2022-08-19T17:36:14;10.02;;;3.80;;
36629;SDS011;36256;42.154;23.002;2022-08-19T17:38:42;8.73;;;4.32;;
36629;SDS011;36256;42.154;23.002;2022-08-19T17:41:10;9.80;;;4.15;;
36629;SDS011;36256;42.154;23.002;2022-08-19T17:43:36;7.82;;;4.20;;
36629;SDS011;36256;42.154;23.002;2022-08-19T17:46:12;7.65;;;4.00;;
36629;SDS011;36256;42.154;23.002;2022-08-19T17:53:48;10.40;;;4.78;;
36629;SDS011;36256;42.154;23.002;2022-08-19T17:56:16;10.65;;;4.65;;
36629;SDS011;36256;42.154;23.002;2022-08-19T17:58:43;8.45;;;4.80;;
36629;SDS011;36256;42.154;23.002;2022-08-19T18:01:25;9.25;;;4.55;;
36629;SDS011;36256;42.154;23.002;2022-08-19T18:04:10;10.52;;;5.20;;
36629;SDS011;36256;42.154;23.002;2022-08-19T18:06:38;10.25;;;5.10;;
36629;SDS011;36256;42.154;23.002;2022-08-19T18:09:18;10.90;;;5.60;;
36629;SDS011;36256;42.154;23.002;2022-08-19T18:11:46;13.77;;;5.88;;
36629;SDS011;36256;42.154;23.002;2022-08-19T18:14:18;11.65;;;6.22;;
36629;SDS011;36256;42.154;23.002;2022-08-19T18:16:45;12.85;;;6.03;;
36629;SDS011;36256;42.154;23.002;2022-08-19T18:19:12;10.35;;;6.10;;
36629;SDS011;36256;42.154;23.002;2022-08-19T18:21:39;14.30;;;6.60;;
36629;SDS011;36256;42.154;23.002;2022-08-19T18:24:06;10.63;;;6.28;;
36629;SDS011;36256;42.154;23.002;2022-08-19T18:29:03;9.55;;;5.47;;
36629;SDS011;36256;42.154;23.002;2022-08-19T18:31:29;14.07;;;5.25;;
36629;SDS011;36256;42.154;23.002;2022-08-19T18:33:56;10.95;;;5.53;;
36629;SDS011;36256;42.154;23.002;2022-08-19T18:36:23;18.88;;;5.47;;
36629;SDS011;36256;42.154;23.002;2022-08-19T18:39:10;11.18;;;5.70;;
36629;SDS011;36256;42.154;23.002;2022-08-19T18:41:55;14.60;;;5.95;;
36629;SDS011;36256;42.154;23.002;2022-08-19T18:44:40;11.38;;;6.50;;
36629;SDS011;36256;42.154;23.002;2022-08-19T18:47:25;12.13;;;5.80;;
36629;SDS011;36256;42.154;23.002;2022-08-19T18:50:10;25.17;;;7.38;;
36629;SDS011;36256;42.154;23.002;2022-08-19T18:52:39;18.63;;;6.40;;
36629;SDS011;36256;42.154;23.002;2022-08-19T18:55:06;15.57;;;5.88;;
36629;SDS011;36256;42.154;23.002;2022-08-19T18:57:33;15.02;;;6.45;;
36629;SDS011;36256;42.154;23.002;2022-08-19T18:59:59;11.30;;;6.07;;
36629;SDS011;36256;42.154;23.002;2022-08-19T19:02:27;15.38;;;6.22;;
36629;SDS011;36256;42.154;23.002;2022-08-19T19:04:54;10.13;;;5.80;;
36629;SDS011;36256;42.154;23.002;2022-08-19T19:07:21;15.05;;;5.80;;
36629;SDS011;36256;42.154;23.002;2022-08-19T19:09:48;16.70;;;6.40;;
36629;SDS011;36256;42.154;23.002;2022-08-19T19:12:16;18.55;;;6.85;;
36629;SDS011;36256;42.154;23.002;2022-08-19T19:17:15;14.05;;;7.30;;
36629;SDS011;36256;42.154;23.002;2022-08-19T19:22:13;10.73;;;6.35;;
36629;SDS011;36256;42.154;23.002;2022-08-19T19:24:43;10.00;;;6.57;;
36629;SDS011;36256;42.154;23.002;2022-08-19T19:29:38;13.55;;;6.38;;
36629;SDS011;36256;42.154;23.002;2022-08-19T19:32:06;11.80;;;6.38;;
36629;SDS011;36256;42.154;23.002;2022-08-19T19:34:38;12.52;;;6.63;;
36629;SDS011;36256;42.154;23.002;2022-08-19T19:37:05;9.40;;;7.13;;
36629;SDS011;36256;42.154;23.002;2022-08-19T19:39:32;16.98;;;7.57;;
36629;SDS011;36256;42.154;23.002;2022-08-19T19:42:12;14.13;;;6.70;;
36629;SDS011;36256;42.154;23.002;2022-08-19T19:44:46;11.60;;;6.55;;
36629;SDS011;36256;42.154;23.002;2022-08-19T19:47:16;8.88;;;6.75;;
36629;SDS011;36256;42.154;23.002;2022-08-19T19:49:45;15.27;;;7.05;;
36629;SDS011;36256;42.154;23.002;2022-08-19T19:52:32;13.38;;;6.65;;
36629;SDS011;36256;42.154;23.002;2022-08-19T19:54:58;10.77;;;6.50;;
36629;SDS011;36256;42.154;23.002;2022-08-19T19:57:26;15.70;;;6.60;;
36629;SDS011;36256;42.154;23.002;2022-08-19T19:59:54;13.88;;;6.70;;
36629;SDS011;36256;42.154;23.002;2022-08-19T20:04:50;10.50;;;6.65;;
36629;SDS011;36256;42.154;23.002;2022-08-19T20:07:17;13.32;;;6.68;;
36629;SDS011;36256;42.154;23.002;2022-08-19T20:10:04;15.07;;;7.13;;
36629;SDS011;36256;42.154;23.002;2022-08-19T20:12:31;11.52;;;6.85;;
36629;SDS011;36256;42.154;23.002;2022-08-19T20:14:57;7.63;;;6.25;;
36629;SDS011;36256;42.154;23.002;2022-08-19T20:17:24;10.70;;;7.28;;
36629;SDS011;36256;42.154;23.002;2022-08-19T20:19:50;12.00;;;6.68;;
36629;SDS011;36256;42.154;23.002;2022-08-19T20:22:18;14.30;;;6.80;;
36629;SDS011;36256;42.154;23.002;2022-08-19T20:24:45;9.27;;;6.43;;
36629;SDS011;36256;42.154;23.002;2022-08-19T20:27:13;11.20;;;6.50;;
36629;SDS011;36256;42.154;23.002;2022-08-19T20:29:42;11.93;;;6.05;;
36629;SDS011;36256;42.154;23.002;2022-08-19T20:32:10;13.38;;;6.40;;
36629;SDS011;36256;42.154;23.002;2022-08-19T20:34:39;12.05;;;7.30;;
36629;SDS011;36256;42.154;23.002;2022-08-19T20:37:06;11.93;;;7.70;;
36629;SDS011;36256;42.154;23.002;2022-08-19T20:39:34;17.58;;;13.38;;
36629;SDS011;36256;42.154;23.002;2022-08-19T20:44:28;18.75;;;11.85;;
36629;SDS011;36256;42.154;23.002;2022-08-19T20:46:55;12.25;;;8.13;;
36629;SDS011;36256;42.154;23.002;2022-08-19T20:49:28;11.35;;;7.30;;
36629;SDS011;36256;42.154;23.002;2022-08-19T20:51:55;12.85;;;7.40;;
36629;SDS011;36256;42.154;23.002;2022-08-19T20:56:49;12.27;;;6.57;;
36629;SDS011;36256;42.154;23.002;2022-08-19T20:59:17;10.73;;;6.22;;
36629;SDS011;36256;42.154;23.002;2022-08-19T21:01:45;10.77;;;5.90;;
36629;SDS011;36256;42.154;23.002;2022-08-19T21:04:12;8.75;;;6.55;;
36629;SDS011;36256;42.154;23.002;2022-08-19T21:09:10;10.07;;;6.30;;
36629;SDS011;36256;42.154;23.002;2022-08-19T21:11:37;13.65;;;6.32;;
36629;SDS011;36256;42.154;23.002;2022-08-19T21:14:04;12.88;;;5.97;;
36629;SDS011;36256;42.154;23.002;2022-08-19T21:16:31;13.93;;;6.47;;
36629;SDS011;36256;42.154;23.002;2022-08-19T21:18:59;12.27;;;6.68;;
36629;SDS011;36256;42.154;23.002;2022-08-19T21:21:26;20.55;;;6.85;;
36629;SDS011;36256;42.154;23.002;2022-08-19T21:23:52;14.18;;;6.80;;
36629;SDS011;36256;42.154;23.002;2022-08-19T21:26:19;16.00;;;6.57;;
36629;SDS011;36256;42.154;23.002;2022-08-19T21:28:46;11.30;;;6.70;;
36629;SDS011;36256;42.154;23.002;2022-08-19T21:31:12;9.00;;;5.97;;
36629;SDS011;36256;42.154;23.002;2022-08-19T21:33:43;13.30;;;6.78;;
36629;SDS011;36256;42.154;23.002;2022-08-19T21:36:10;9.32;;;6.28;;
36629;SDS011;36256;42.154;23.002;2022-08-19T21:38:36;10.68;;;6.22;;
36629;SDS011;36256;42.154;23.002;2022-08-19T21:41:04;11.13;;;6.60;;
36629;SDS011;36256;42.154;23.002;2022-08-19T21:43:32;10.25;;;6.75;;
36629;SDS011;36256;42.154;23.002;2022-08-19T21:46:00;15.13;;;7.50;;
36629;SDS011;36256;42.154;23.002;2022-08-19T21:48:27;12.15;;;6.95;;
36629;SDS011;36256;42.154;23.002;2022-08-19T21:50:54;10.65;;;6.28;;
36629;SDS011;36256;42.154;23.002;2022-08-19T21:53:20;12.75;;;6.80;;
36629;SDS011;36256;42.154;23.002;2022-08-19T21:55:48;10.57;;;6.25;;
36629;SDS011;36256;42.154;23.002;2022-08-19T21:58:19;11.60;;;6.68;;
36629;SDS011;36256;42.154;23.002;2022-08-19T22:03:23;11.55;;;6.55;;
36629;SDS011;36256;42.154;23.002;2022-08-19T22:05:51;10.40;;;6.60;;
36629;SDS011;36256;42.154;23.002;2022-08-19T22:08:17;15.60;;;6.60;;
36629;SDS011;36256;42.154;23.002;2022-08-19T22:10:44;11.30;;;6.10;;
36629;SDS011;36256;42.154;23.002;2022-08-19T22:13:11;8.40;;;6.40;;
36629;SDS011;36256;42.154;23.002;2022-08-19T22:15:38;10.38;;;6.03;;
36629;SDS011;36256;42.154;23.002;2022-08-19T22:18:06;10.30;;;6.50;;
36629;SDS011;36256;42.154;23.002;2022-08-19T22:20:32;15.00;;;6.30;;
36629;SDS011;36256;42.154;23.002;2022-08-19T22:23:00;13.93;;;6.90;;
36629;SDS011;36256;42.154;23.002;2022-08-19T22:25:29;9.50;;;6.60;;
36629;SDS011;36256;42.154;23.002;2022-08-19T22:28:02;9.50;;;6.03;;
36629;SDS011;36256;42.154;23.002;2022-08-19T22:30:31;15.50;;;6.80;;
36629;SDS011;36256;42.154;23.002;2022-08-19T22:33:02;9.95;;;6.38;;
36629;SDS011;36256;42.154;23.002;2022-08-19T22:35:33;13.48;;;6.97;;
36629;SDS011;36256;42.154;23.002;2022-08-19T22:38:03;12.30;;;6.40;;
36629;SDS011;36256;42.154;23.002;2022-08-19T22:40:33;11.50;;;7.50;;
36629;SDS011;36256;42.154;23.002;2022-08-19T22:43:13;11.32;;;7.15;;
36629;SDS011;36256;42.154;23.002;2022-08-19T22:45:42;15.15;;;7.28;;
36629;SDS011;36256;42.154;23.002;2022-08-19T22:48:10;14.20;;;7.25;;
36629;SDS011;36256;42.154;23.002;2022-08-19T22:50:39;13.85;;;6.80;;
36629;SDS011;36256;42.154;23.002;2022-08-19T22:53:08;13.20;;;7.50;;
36629;SDS011;36256;42.154;23.002;2022-08-19T22:58:03;11.55;;;7.30;;
36629;SDS011;36256;42.154;23.002;2022-08-19T23:00:31;11.00;;;6.57;;
36629;SDS011;36256;42.154;23.002;2022-08-19T23:02:58;12.55;;;7.55;;
36629;SDS011;36256;42.154;23.002;2022-08-19T23:05:27;9.85;;;7.15;;
36629;SDS011;36256;42.154;23.002;2022-08-19T23:07:54;10.77;;;7.15;;
36629;SDS011;36256;42.154;23.002;2022-08-19T23:10:23;11.07;;;6.80;;
36629;SDS011;36256;42.154;23.002;2022-08-19T23:12:54;11.25;;;6.72;;
36629;SDS011;36256;42.154;23.002;2022-08-19T23:15:24;14.10;;;6.93;;
36629;SDS011;36256;42.154;23.002;2022-08-19T23:17:53;13.38;;;6.70;;
36629;SDS011;36256;42.154;23.002;2022-08-19T23:20:23;11.27;;;6.57;;
36629;SDS011;36256;42.154;23.002;2022-08-19T23:22:53;15.65;;;7.03;;
36629;SDS011;36256;42.154;23.002;2022-08-19T23:25:22;8.18;;;6.90;;
36629;SDS011;36256;42.154;23.002;2022-08-19T23:27:50;11.57;;;6.82;;
36629;SDS011;36256;42.154;23.002;2022-08-19T23:30:37;11.63;;;6.85;;
36629;SDS011;36256;42.154;23.002;2022-08-19T23:33:11;14.60;;;7.20;;
36629;SDS011;36256;42.154;23.002;2022-08-19T23:35:43;13.25;;;7.18;;
36629;SDS011;36256;42.154;23.002;2022-08-19T23:38:10;11.90;;;7.13;;
36629;SDS011;36256;42.154;23.002;2022-08-19T23:40:37;13.45;;;7.78;;
36629;SDS011;36256;42.154;23.002;2022-08-19T23:43:04;13.02;;;7.63;;
36629;SDS011;36256;42.154;23.002;2022-08-19T23:45:38;14.73;;;7.35;;
36629;SDS011;36256;42.154;23.002;2022-08-19T23:48:16;9.98;;;6.65;;
36629;SDS011;36256;42.154;23.002;2022-08-19T23:50:43;11.20;;;6.85;;
36629;SDS011;36256;42.154;23.002;2022-08-19T23:53:10;9.57;;;7.13;;
36629;SDS011;36256;42.154;23.002;2022-08-19T23:55:39;9.68;;;7.45;;
36629;SDS011;36256;42.154;23.002;2022-08-19T23:58:08;10.93;;;7.22;;
